createdAt,value
2022-12-04T00:02:04.577Z,1.47
2022-12-04T00:04:51.194Z,1.45
2022-12-04T00:07:38.067Z,1.46
2022-12-04T00:10:24.810Z,1.51
2022-12-04T00:13:11.709Z,1.47
2022-12-04T00:15:59.317Z,1.46
2022-12-04T00:18:46.855Z,1.55
2022-12-04T00:21:33.772Z,1.47
2022-12-04T00:24:20.155Z,1.48
2022-12-04T00:27:06.590Z,1.59
2022-12-04T00:29:54.193Z,1.51
2022-12-04T00:32:40.943Z,1.46
2022-12-04T00:35:27.450Z,1.44
2022-12-04T00:38:14.341Z,1.45
2022-12-04T00:41:03.558Z,1.46
2022-12-04T00:43:50.423Z,1.46
2022-12-04T00:46:36.878Z,1.52
2022-12-04T00:49:23.524Z,1.54
2022-12-04T00:52:09.934Z,1.54
2022-12-04T00:54:56.948Z,1.49
2022-12-04T00:57:43.366Z,1.45
2022-12-04T01:00:30.496Z,1.50
2022-12-04T01:03:17.172Z,1.55
2022-12-04T01:06:04.361Z,1.45
2022-12-04T01:08:52.161Z,1.51
2022-12-04T01:11:38.807Z,1.60
2022-12-04T01:14:25.599Z,1.62
2022-12-04T01:17:13.229Z,1.63
2022-12-04T01:19:59.841Z,1.68
2022-12-04T01:22:47.620Z,1.61
2022-12-04T01:25:34.373Z,1.58
2022-12-04T01:28:21.569Z,1.62
2022-12-04T01:31:17.457Z,1.58
2022-12-04T01:34:04.298Z,1.49
2022-12-04T01:36:51.499Z,1.52
2022-12-04T01:39:37.940Z,1.54
2022-12-04T01:42:25.577Z,1.51
2022-12-04T01:45:47.329Z,1.57
2022-12-04T01:48:37.754Z,1.44
2022-12-04T01:51:33.822Z,1.47
2022-12-04T01:54:28.684Z,1.43
2022-12-04T01:57:18.334Z,1.47
2022-12-04T02:00:09.342Z,1.39
2022-12-04T02:02:56.074Z,1.48
2022-12-04T02:05:43.037Z,1.39
2022-12-04T02:08:30.642Z,1.43
2022-12-04T02:11:32.257Z,1.41
2022-12-04T02:14:37.734Z,1.36
2022-12-04T02:17:27.266Z,1.28
2022-12-04T02:20:42.714Z,1.47
2022-12-04T02:24:00.121Z,1.37
2022-12-04T02:26:53.353Z,1.38
2022-12-04T02:30:04.419Z,1.42
2022-12-04T02:33:33.512Z,1.43
2022-12-04T02:36:24.243Z,1.38
2022-12-04T02:39:41.802Z,1.42
2022-12-04T02:42:45.143Z,1.45
2022-12-04T02:45:38.057Z,1.50
2022-12-04T02:48:28.586Z,1.46
2022-12-04T02:51:18.552Z,1.48
2022-12-04T02:54:14.310Z,1.46
2022-12-04T02:57:04.842Z,1.43
2022-12-04T02:59:54.047Z,1.49
2022-12-04T03:03:06.088Z,1.49
2022-12-04T03:06:04.946Z,1.45
2022-12-04T03:08:57.488Z,1.42
2022-12-04T03:11:50.065Z,1.41
2022-12-04T03:14:43.090Z,1.59
2022-12-04T03:17:39.911Z,1.52
2022-12-04T03:20:28.456Z,1.47
2022-12-04T03:23:20.979Z,1.45
2022-12-04T03:26:15.737Z,1.45
2022-12-04T03:29:11.989Z,1.43
2022-12-04T03:32:11.574Z,1.48
2022-12-04T03:35:15.972Z,1.38
2022-12-04T03:38:08.671Z,1.50
2022-12-04T03:41:33.483Z,1.54
2022-12-04T03:44:39.001Z,1.43
2022-12-04T03:47:46.651Z,1.46
2022-12-04T03:50:46.801Z,1.46
2022-12-04T03:53:47.551Z,1.51
2022-12-04T03:56:40.652Z,1.46
2022-12-04T03:59:35.311Z,1.45
2022-12-04T04:02:25.431Z,1.52
2022-12-04T04:05:14.932Z,1.51
2022-12-04T04:08:24.019Z,1.42
2022-12-04T04:11:17.844Z,1.41
2022-12-04T04:14:30.984Z,1.41
2022-12-04T04:17:41.446Z,1.32
2022-12-04T04:20:55.649Z,1.34
2022-12-04T04:24:05.291Z,1.36
2022-12-04T04:26:53.097Z,1.28
2022-12-04T04:29:42.097Z,1.38
2022-12-04T04:32:43.329Z,1.32
2022-12-04T04:36:02.663Z,1.29
2022-12-04T04:39:26.895Z,1.40
2022-12-04T04:42:25.374Z,1.35
2022-12-04T04:45:22.352Z,1.25
2022-12-04T04:48:30.188Z,1.23
2022-12-04T04:51:18.093Z,1.32
2022-12-04T04:54:09.933Z,1.27
2022-12-04T04:56:56.844Z,1.41
2022-12-04T04:59:43.303Z,1.35
2022-12-04T05:02:30.284Z,1.30
2022-12-04T05:05:20.437Z,1.39
2022-12-04T05:08:07.278Z,1.44
2022-12-04T05:10:54.534Z,1.39
2022-12-04T05:13:41.971Z,1.33
2022-12-04T05:16:28.579Z,1.34
2022-12-04T05:19:33.766Z,1.39
2022-12-04T05:22:32.202Z,1.45
2022-12-04T05:25:18.796Z,1.42
2022-12-04T05:28:06.027Z,1.49
2022-12-04T05:30:57.781Z,1.45
2022-12-04T05:33:44.478Z,1.41
2022-12-04T05:36:30.842Z,1.49
2022-12-04T05:39:17.597Z,1.50
2022-12-04T05:42:04.314Z,1.47
2022-12-04T05:44:51.063Z,1.32
2022-12-04T05:47:41.834Z,1.33
2022-12-04T05:50:29.511Z,1.41
2022-12-04T05:53:15.832Z,1.45
2022-12-04T05:56:04.446Z,1.34
2022-12-04T05:58:50.832Z,1.41
2022-12-04T06:01:37.516Z,1.42
2022-12-04T06:04:25.370Z,1.44
2022-12-04T06:07:12.008Z,1.46
2022-12-04T06:09:58.909Z,1.48
2022-12-04T06:12:45.779Z,1.48
2022-12-04T06:15:37.608Z,1.52
2022-12-04T06:18:24.056Z,1.41
2022-12-04T06:21:11.296Z,1.33
2022-12-04T06:23:58.171Z,1.33
2022-12-04T06:27:11.140Z,1.41
2022-12-04T06:29:51.677Z,1.30
2022-12-04T06:32:38.534Z,1.32
2022-12-04T06:35:25.024Z,1.34
2022-12-04T06:38:13.263Z,1.43
2022-12-04T06:40:59.781Z,1.40
2022-12-04T06:43:46.267Z,1.54
2022-12-04T06:46:34.505Z,1.50
2022-12-04T06:49:22.995Z,1.60
2022-12-04T06:52:09.679Z,1.63
2022-12-04T06:54:56.288Z,1.61
2022-12-04T06:57:42.911Z,1.61
2022-12-04T07:00:29.429Z,1.56
2022-12-04T07:03:15.485Z,1.47
2022-12-04T07:06:19.265Z,1.50
2022-12-04T07:09:07.657Z,1.54
2022-12-04T07:11:55.136Z,1.56
2022-12-04T07:14:41.717Z,1.47
2022-12-04T07:17:28.570Z,1.56
2022-12-04T07:20:15.149Z,1.56
2022-12-04T07:23:07.102Z,1.55
2022-12-04T07:25:54.005Z,1.65
2022-12-04T07:28:42.001Z,1.73
2022-12-04T07:31:30.634Z,1.60
2022-12-04T07:34:17.623Z,1.51
2022-12-04T07:37:04.341Z,1.59
2022-12-04T07:39:52.632Z,1.54
2022-12-04T07:42:39.768Z,1.61
2022-12-04T07:45:26.539Z,1.48
2022-12-04T07:48:13.666Z,1.46
2022-12-04T07:51:09.624Z,1.50
2022-12-04T07:54:03.810Z,1.44
2022-12-04T07:56:51.065Z,1.58
2022-12-04T07:59:37.909Z,1.61
2022-12-04T08:02:24.612Z,1.67
2022-12-04T08:05:11.339Z,1.65
2022-12-04T08:07:58.108Z,1.66
2022-12-04T08:10:45.247Z,1.57
2022-12-04T08:13:32.547Z,1.60
2022-12-04T08:16:19.505Z,1.58
2022-12-04T08:19:06.779Z,1.66
2022-12-04T08:21:56.981Z,1.59
2022-12-04T08:24:44.090Z,1.63
2022-12-04T08:27:30.914Z,1.60
2022-12-04T08:30:18.131Z,1.62
2022-12-04T08:33:05.239Z,1.67
2022-12-04T08:35:52.374Z,1.69
2022-12-04T08:38:40.239Z,1.69
2022-12-04T08:41:27.497Z,1.61
2022-12-04T08:44:14.183Z,1.72
2022-12-04T08:47:01.332Z,1.80
2022-12-04T08:49:48.375Z,1.78
2022-12-04T08:52:35.318Z,1.86
2022-12-04T08:55:22.468Z,1.80
2022-12-04T08:58:10.616Z,1.83
2022-12-04T09:00:57.214Z,1.78
2022-12-04T09:03:45.004Z,1.77
2022-12-04T09:06:33.399Z,1.74
2022-12-04T09:09:20.317Z,1.89
2022-12-04T09:12:07.425Z,2.02
2022-12-04T09:14:54.632Z,1.89
2022-12-04T09:17:41.232Z,1.89
2022-12-04T09:20:27.985Z,1.84
2022-12-04T09:23:14.638Z,1.75
2022-12-04T09:26:01.747Z,1.75
2022-12-04T09:28:49.601Z,1.81
2022-12-04T09:31:37.181Z,1.79
2022-12-04T09:34:24.138Z,1.84
2022-12-04T09:37:11.386Z,1.80
2022-12-04T09:39:58.645Z,1.92
2022-12-04T09:43:07.594Z,1.91
2022-12-04T09:45:59.962Z,1.95
2022-12-04T09:48:48.752Z,1.94
2022-12-04T09:51:38.558Z,2.03
2022-12-04T09:54:33.448Z,2.03
2022-12-04T09:57:41.614Z,2.06
2022-12-04T10:00:30.601Z,1.98
2022-12-04T10:03:20.934Z,1.95
2022-12-04T10:06:14.887Z,2.09
2022-12-04T10:09:22.672Z,1.93
2022-12-04T10:12:22.430Z,1.92
2022-12-04T10:15:33.239Z,1.93
2022-12-04T10:18:32.045Z,2.04
2022-12-04T10:21:54.479Z,2.01
2022-12-04T10:24:53.306Z,2.09
2022-12-04T10:27:50.899Z,2.11
2022-12-04T10:30:41.630Z,2.10
2022-12-04T10:34:06.412Z,2.11
2022-12-04T10:36:55.421Z,2.13
2022-12-04T10:39:50.411Z,2.25
2022-12-04T10:43:01.071Z,2.25
2022-12-04T10:45:48.294Z,2.23
2022-12-04T10:48:39.199Z,2.18
2022-12-04T10:51:26.233Z,2.25
2022-12-04T10:54:35.405Z,2.28
2022-12-04T10:57:21.987Z,2.28
2022-12-04T11:00:28.803Z,2.30
2022-12-04T11:03:28.591Z,2.27
2022-12-04T11:06:15.399Z,2.22
2022-12-04T11:09:03.951Z,2.21
2022-12-04T11:11:52.388Z,2.23
2022-12-04T11:14:44.046Z,2.22
2022-12-04T11:17:34.018Z,2.26
2022-12-04T11:20:25.255Z,2.21
2022-12-04T11:23:16.090Z,2.30
2022-12-04T11:26:06.237Z,2.33
2022-12-04T11:28:55.189Z,2.31
2022-12-04T11:31:42.042Z,2.30
2022-12-04T11:34:36.640Z,2.36
2022-12-04T11:37:30.388Z,2.35
2022-12-04T11:40:20.233Z,2.37
2022-12-04T11:43:14.860Z,2.31
2022-12-04T11:46:06.338Z,2.26
2022-12-04T11:48:53.184Z,2.17
2022-12-04T11:51:39.568Z,2.20
2022-12-04T11:54:51.973Z,2.32
2022-12-04T11:57:54.183Z,2.28
2022-12-04T12:01:19.608Z,2.26
2022-12-04T12:04:29.183Z,2.30
2022-12-04T12:07:38.075Z,2.29
2022-12-04T12:10:44.285Z,2.34
2022-12-04T12:13:46.890Z,2.39
2022-12-04T12:16:51.332Z,2.36
2022-12-04T12:20:00.170Z,2.35
2022-12-04T12:23:31.737Z,2.28
2022-12-04T12:26:18.989Z,2.28
2022-12-04T12:29:10.405Z,2.34
2022-12-04T12:32:09.807Z,2.30
2022-12-04T12:34:56.793Z,2.38
2022-12-04T12:38:17.493Z,2.42
2022-12-04T12:41:14.381Z,2.43
2022-12-04T12:44:17.669Z,2.44
2022-12-04T12:47:17.993Z,2.40
2022-12-04T12:50:13.810Z,2.40
2022-12-04T12:53:09.721Z,2.45
2022-12-04T12:56:00.914Z,2.50
2022-12-04T12:58:53.499Z,2.42
2022-12-04T13:02:16.345Z,2.33
2022-12-04T13:05:09.660Z,2.26
2022-12-04T13:08:03.603Z,2.28
2022-12-04T13:11:00.782Z,2.27
2022-12-04T13:13:54.159Z,2.29
2022-12-04T13:16:49.137Z,2.19
2022-12-04T13:19:46.399Z,2.29
2022-12-04T13:23:01.676Z,2.27
2022-12-04T13:25:56.525Z,2.24
2022-12-04T13:28:46.368Z,2.32
2022-12-04T13:31:53.796Z,2.41
2022-12-04T13:35:11.405Z,2.26
2022-12-04T13:38:23.869Z,2.21
2022-12-04T13:41:20.551Z,2.28
2022-12-04T13:44:20.611Z,2.33
2022-12-04T13:47:11.347Z,2.27
2022-12-04T13:50:19.564Z,2.22
2022-12-04T13:53:06.932Z,2.15
2022-12-04T13:55:57.172Z,2.22
2022-12-04T13:58:43.868Z,2.30
2022-12-04T14:01:41.033Z,2.23
2022-12-04T14:04:37.439Z,2.19
2022-12-04T14:07:26.325Z,2.18
2022-12-04T14:10:16.000Z,2.10
2022-12-04T14:13:16.325Z,2.08
2022-12-04T14:16:17.570Z,1.99
2022-12-04T14:19:05.852Z,2.06
2022-12-04T14:21:54.631Z,2.10
2022-12-04T14:24:41.339Z,2.08
2022-12-04T14:27:35.070Z,2.07
2022-12-04T14:30:28.929Z,2.04
2022-12-04T14:33:24.648Z,2.15
2022-12-04T14:36:19.280Z,2.23
2022-12-04T14:39:17.063Z,2.15
2022-12-04T14:42:13.128Z,2.15
2022-12-04T14:45:02.662Z,2.10
2022-12-04T14:48:03.332Z,2.03
2022-12-04T14:51:19.089Z,2.02
2022-12-04T14:54:26.795Z,2.08
2022-12-04T14:57:31.823Z,2.03
2022-12-04T15:00:22.344Z,1.95
2022-12-04T15:03:13.732Z,1.98
2022-12-04T15:06:12.044Z,1.94
2022-12-04T15:09:19.441Z,1.96
2022-12-04T15:12:33.568Z,1.98
2022-12-04T15:15:25.104Z,2.04
2022-12-04T15:18:16.878Z,1.99
2022-12-04T15:21:04.639Z,1.96
2022-12-04T15:23:51.602Z,1.94
2022-12-04T15:26:40.006Z,1.99
2022-12-04T15:29:31.609Z,2.08
2022-12-04T15:32:22.876Z,2.04
2022-12-04T15:35:49.097Z,2.00
2022-12-04T15:38:36.411Z,1.95
2022-12-04T15:41:31.184Z,1.95
2022-12-04T15:44:29.220Z,1.91
2022-12-04T15:47:20.134Z,1.93
2022-12-04T15:50:13.826Z,1.89
2022-12-04T15:53:15.639Z,1.83
2022-12-04T15:56:06.697Z,1.91
2022-12-04T15:58:58.013Z,1.91
2022-12-04T16:01:45.301Z,2.00
2022-12-04T16:04:38.851Z,2.02
2022-12-04T16:07:33.097Z,1.94
2022-12-04T16:10:36.010Z,1.88
2022-12-04T16:14:01.695Z,1.86
2022-12-04T16:16:52.982Z,1.89
2022-12-04T16:19:42.388Z,1.94
2022-12-04T16:22:30.220Z,2.01
2022-12-04T16:25:18.143Z,2.06
2022-12-04T16:28:05.016Z,2.11
2022-12-04T16:30:53.195Z,2.12
2022-12-04T16:33:40.973Z,1.96
2022-12-04T16:36:27.958Z,1.85
2022-12-04T16:39:15.211Z,1.90
2022-12-04T16:42:20.221Z,1.88
2022-12-04T16:45:29.716Z,1.81
2022-12-04T16:48:16.974Z,1.79
2022-12-04T16:51:04.211Z,1.82
2022-12-04T16:53:53.516Z,1.79
2022-12-04T16:56:40.808Z,1.82
2022-12-04T16:59:30.331Z,1.87
2022-12-04T17:02:26.381Z,1.98
2022-12-04T17:05:28.542Z,1.97
2022-12-04T17:08:16.304Z,1.96
2022-12-04T17:11:03.701Z,1.98
2022-12-04T17:13:51.176Z,1.84
2022-12-04T17:16:45.227Z,1.79
2022-12-04T17:19:32.494Z,1.82
2022-12-04T17:22:23.603Z,1.83
2022-12-04T17:25:12.219Z,1.77
2022-12-04T17:28:12.295Z,1.72
2022-12-04T17:31:01.673Z,1.61
2022-12-04T17:33:49.595Z,1.67
2022-12-04T17:36:37.559Z,1.70
2022-12-04T17:39:25.482Z,1.74
2022-12-04T17:42:12.303Z,1.68
2022-12-04T17:44:59.713Z,1.76
2022-12-04T17:47:46.819Z,1.79
2022-12-04T17:50:34.044Z,1.82
2022-12-04T17:53:20.882Z,1.73
2022-12-04T17:56:14.889Z,1.78
2022-12-04T17:59:02.239Z,1.70
2022-12-04T18:01:53.454Z,1.74
2022-12-04T18:04:40.708Z,1.76
2022-12-04T18:07:27.950Z,1.72
2022-12-04T18:10:14.988Z,1.66
2022-12-04T18:13:01.770Z,1.69
2022-12-04T18:15:48.803Z,1.73
2022-12-04T18:18:36.845Z,1.75
2022-12-04T18:21:24.690Z,1.78
2022-12-04T18:24:12.019Z,1.78
2022-12-04T18:26:59.270Z,1.74
2022-12-04T18:29:46.599Z,1.79
2022-12-04T18:32:34.013Z,1.81
2022-12-04T18:35:21.227Z,1.82
2022-12-04T18:38:08.357Z,1.77
2022-12-04T18:40:57.124Z,1.67
2022-12-04T18:43:45.636Z,1.70
2022-12-04T18:46:33.208Z,1.74
2022-12-04T18:49:19.839Z,1.78
2022-12-04T18:52:09.796Z,1.72
2022-12-04T18:54:56.811Z,1.67
2022-12-04T18:57:43.957Z,1.74
2022-12-04T19:00:30.484Z,1.74
2022-12-04T19:03:16.954Z,1.68
2022-12-04T19:06:04.077Z,1.68
2022-12-04T19:08:51.877Z,1.78
2022-12-04T19:11:39.696Z,1.73
2022-12-04T19:14:26.074Z,1.64
2022-12-04T19:17:23.952Z,1.76
2022-12-04T19:20:13.600Z,1.78
2022-12-04T19:22:59.746Z,1.83
2022-12-04T19:25:55.176Z,1.77
2022-12-04T19:28:41.520Z,1.76
2022-12-04T19:31:31.912Z,1.77
2022-12-04T19:34:18.661Z,1.73
2022-12-04T19:37:06.008Z,1.69
2022-12-04T19:39:52.365Z,1.73
2022-12-04T19:42:38.905Z,1.76
2022-12-04T19:45:25.405Z,1.76
2022-12-04T19:48:11.821Z,1.76
2022-12-04T19:51:03.819Z,1.71
2022-12-04T19:53:54.672Z,1.73
2022-12-04T19:56:41.870Z,1.74
2022-12-04T19:59:36.430Z,1.72
2022-12-04T20:02:24.652Z,1.71
2022-12-04T20:05:11.379Z,1.75
2022-12-04T20:10:43.897Z,1.84
2022-12-04T20:13:30.591Z,1.85
2022-12-04T20:16:18.605Z,1.86
2022-12-04T20:19:09.220Z,1.95
2022-12-04T20:21:59.307Z,1.92
2022-12-04T20:24:45.983Z,1.78
2022-12-04T20:27:33.445Z,1.84
2022-12-04T20:30:19.728Z,1.94
2022-12-04T20:33:06.478Z,2.01
2022-12-04T20:35:56.545Z,1.99
2022-12-04T20:38:43.507Z,1.99
2022-12-04T20:41:31.744Z,1.99
2022-12-04T20:44:20.119Z,1.92
2022-12-04T20:47:06.785Z,1.83
2022-12-04T20:49:53.048Z,1.87
2022-12-04T20:52:40.001Z,1.87
2022-12-04T20:55:26.241Z,1.88
2022-12-04T20:58:13.920Z,1.90
2022-12-04T21:01:12.204Z,1.89
2022-12-04T21:04:00.387Z,1.85
2022-12-04T21:06:47.080Z,1.77
2022-12-04T21:09:33.803Z,1.82
2022-12-04T21:12:43.179Z,1.86
2022-12-04T21:15:48.722Z,1.94
2022-12-04T21:18:36.945Z,1.93
2022-12-04T21:21:23.444Z,1.85
2022-12-04T21:24:12.879Z,1.82
2022-12-04T21:26:59.185Z,1.82
2022-12-04T21:29:45.868Z,1.80
2022-12-04T21:32:32.565Z,1.86
2022-12-04T21:35:18.999Z,1.83
2022-12-04T21:38:06.671Z,1.84
2022-12-04T21:40:53.232Z,1.85
2022-12-04T21:43:39.763Z,1.97
2022-12-04T21:46:26.070Z,1.97
2022-12-04T21:49:15.339Z,1.87
2022-12-04T21:52:01.910Z,1.83
2022-12-04T21:54:53.016Z,1.76
2022-12-04T21:57:41.494Z,1.71
2022-12-04T22:00:27.828Z,1.77
2022-12-04T22:03:15.095Z,1.90
2022-12-04T22:06:11.261Z,1.87
2022-12-04T22:08:58.089Z,1.89
2022-12-04T22:11:44.999Z,1.96
2022-12-04T22:14:32.961Z,2.05
2022-12-04T22:17:21.104Z,2.00
2022-12-04T22:20:08.638Z,1.94
2022-12-04T22:22:56.304Z,1.86
2022-12-04T22:25:45.566Z,1.86
2022-12-04T22:28:32.491Z,1.77
2022-12-04T22:31:21.289Z,1.75
2022-12-04T22:34:07.657Z,1.70
2022-12-04T22:36:54.106Z,1.76
2022-12-04T22:39:40.860Z,1.71
2022-12-04T22:42:27.602Z,1.69
2022-12-04T22:45:13.988Z,1.72
2022-12-04T22:48:00.679Z,1.79
2022-12-04T22:50:58.869Z,1.78
2022-12-04T22:53:54.529Z,1.81
2022-12-04T22:56:43.421Z,1.82
2022-12-04T22:59:30.080Z,1.87
2022-12-04T23:02:16.757Z,1.75
2022-12-04T23:05:03.860Z,1.68
2022-12-04T23:07:50.234Z,1.57
2022-12-04T23:10:38.276Z,1.62
2022-12-04T23:13:24.819Z,1.65
2022-12-04T23:16:15.572Z,1.56
2022-12-04T23:19:07.528Z,1.53
2022-12-04T23:21:57.224Z,1.58
2022-12-04T23:24:43.942Z,1.64
2022-12-04T23:27:33.336Z,1.65
2022-12-04T23:30:26.182Z,1.71
2022-12-04T23:33:13.777Z,1.57
2022-12-04T23:36:02.673Z,1.62
2022-12-04T23:38:49.953Z,1.53
2022-12-04T23:41:36.256Z,1.50
2022-12-04T23:44:22.494Z,1.53
2022-12-04T23:47:09.348Z,1.59
2022-12-04T23:49:56.257Z,1.56
2022-12-04T23:52:42.942Z,1.56
2022-12-04T23:55:34.082Z,1.53
2022-12-04T23:58:21.215Z,1.46
